Creek Data

    Home     View Charts     View Raw Data     Messages

ID Distance Battery Voltage Battery Current Internal Temp Internal Humidity External Temp Solar Input rssi snr Time Stamp Record
64011 14.7 3.89 5 48 49 45 5.1 -77 7 01/21/2026 11:45 AM 46761
64010 14.7 4.01 36 48 48 46 4.5 -77 7 01/21/2026 11:30 AM 46760
64009 14.7 4.01 31 48 48 45 4.5 -77 7 01/21/2026 11:15 AM 46759
64008 14.7 3.88 10 47 48 46 4.5 -76 8 01/21/2026 11:00 AM 46758
64007 14.7 4.00 42 47 48 45 4.5 -76 8 01/21/2026 10:45 AM 46757
64006 14.7 3.98 22 46 48 44 4.5 -76 8 01/21/2026 10:30 AM 46756
64005 14.6 3.96 15 46 48 44 4.5 -76 7 01/21/2026 10:15 AM 46755
64004 14.6 3.97 12 46 48 44 4.5 -76 8 01/21/2026 10:00 AM 46754
64003 14.7 3.91 20 45 48 43 4.5 -75 8 01/21/2026 09:45 AM 46753
64002 14.7 3.94 47 45 48 43 4.5 -76 8 01/21/2026 09:30 AM 46752
64001 14.6 3.87 28 44 48 44 4.5 -75 8 01/21/2026 09:15 AM 46751
64000 14.6 3.85 11 44 48 43 4.5 -75 8 01/21/2026 09:00 AM 46750
63999 14.6 3.88 9 43 49 43 4.6 -76 8 01/21/2026 08:30 AM 46748
63998 14.6 3.82 0 43 49 42 4.5 -76 8 01/21/2026 08:15 AM 46747
63997 14.6 3.81 0 43 49 43 4.5 -76 8 01/21/2026 08:00 AM 46746
63996 14.6 3.80 -6 43 49 43 4.5 -76 8 01/21/2026 07:45 AM 46745
63995 14.6 3.84 -10 42 49 43 4.2 -76 8 01/21/2026 07:30 AM 46744
63994 14.6 3.80 -5 42 49 43 1.3 -76 8 01/21/2026 07:15 AM 46743
63993 14.6 3.79 -5 42 49 43 0 -76 8 01/21/2026 07:00 AM 46742
63992 14.6 3.83 -5 43 49 42 0 -75 9 01/21/2026 06:45 AM 46741
63991 14.6 3.83 -5 43 49 43 0 -77 8 01/21/2026 06:30 AM 46740
63990 14.6 3.66 -5 43 49 43 0 -76 8 01/21/2026 06:15 AM 46739
63989 14.6 3.65 -5 43 49 43 0 -76 8 01/21/2026 06:00 AM 46738
63988 14.6 3.67 -5 43 49 43 0 -76 7 01/21/2026 05:45 AM 46737
63987 14.6 3.66 -5 43 49 43 0 -75 8 01/21/2026 05:30 AM 46736